createdAt,value
2022-09-09T00:01:46.731Z,15.00
2022-09-09T00:04:31.218Z,15.00
2022-09-09T00:07:04.524Z,15.00
2022-09-09T00:09:46.724Z,15.00
2022-09-09T00:12:18.280Z,15.10
2022-09-09T00:15:03.758Z,15.10
2022-09-09T00:17:42.591Z,15.00
2022-09-09T00:20:17.541Z,15.00
2022-09-09T00:23:00.216Z,15.00
2022-09-09T00:25:37.962Z,15.00
2022-09-09T00:28:18.269Z,15.00
2022-09-09T00:30:49.212Z,15.00
2022-09-09T00:33:22.117Z,14.90
2022-09-09T00:35:55.712Z,14.90
2022-09-09T00:38:36.401Z,14.90
2022-09-09T00:41:12.861Z,14.90
2022-09-09T00:43:42.146Z,14.80
2022-09-09T00:46:34.346Z,14.90
2022-09-09T00:49:20.889Z,14.90
2022-09-09T00:52:21.230Z,14.90
2022-09-09T00:54:53.798Z,14.90
2022-09-09T00:57:30.462Z,14.80
2022-09-09T01:00:19.674Z,14.80
2022-09-09T01:03:22.933Z,14.70
2022-09-09T01:06:22.335Z,14.70
2022-09-09T01:09:23.080Z,14.60
2022-09-09T01:11:58.601Z,14.60
2022-09-09T01:14:37.560Z,14.50
2022-09-09T01:17:19.543Z,14.50
2022-09-09T01:19:53.233Z,14.40
2022-09-09T01:22:37.988Z,14.30
2022-09-09T01:25:30.960Z,14.30
2022-09-09T01:28:04.566Z,14.20
2022-09-09T01:30:32.977Z,14.30
2022-09-09T01:33:01.344Z,14.20
2022-09-09T01:35:34.038Z,14.20
2022-09-09T01:38:01.048Z,14.20
2022-09-09T01:40:27.893Z,14.20
2022-09-09T01:42:55.459Z,14.20
2022-09-09T01:45:23.527Z,14.10
2022-09-09T01:47:51.595Z,14.10
2022-09-09T01:50:18.561Z,14.00
2022-09-09T01:52:49.906Z,14.00
2022-09-09T01:55:16.938Z,14.00
2022-09-09T01:58:04.268Z,14.00
2022-09-09T02:00:32.778Z,14.00
2022-09-09T02:03:15.888Z,14.00
2022-09-09T02:05:50.088Z,14.00
2022-09-09T02:08:25.619Z,14.00
2022-09-09T02:11:07.618Z,14.10
2022-09-09T02:13:37.419Z,14.10
2022-09-09T02:16:08.010Z,14.20
2022-09-09T02:18:43.087Z,14.20
2022-09-09T02:21:12.748Z,14.20
2022-09-09T02:23:42.712Z,14.20
2022-09-09T02:26:15.826Z,14.20
2022-09-09T02:28:43.400Z,14.10
2022-09-09T02:31:10.362Z,14.20
2022-09-09T02:33:52.107Z,14.20
2022-09-09T02:36:19.915Z,14.20
2022-09-09T02:38:54.000Z,14.20
2022-09-09T02:41:36.529Z,14.20
2022-09-09T02:44:06.710Z,14.30
2022-09-09T02:46:36.454Z,14.40
2022-09-09T02:49:10.041Z,14.40
2022-09-09T02:51:42.043Z,14.40
2022-09-09T02:54:17.872Z,14.40
2022-09-09T02:56:52.272Z,14.40
2022-09-09T02:59:19.147Z,14.40
2022-09-09T03:01:46.087Z,14.40
2022-09-09T03:04:12.721Z,14.30
2022-09-09T03:06:39.458Z,14.20
2022-09-09T03:09:06.184Z,14.20
2022-09-09T03:11:33.148Z,14.20
2022-09-09T03:13:59.806Z,14.20
2022-09-09T03:16:26.540Z,14.20
2022-09-09T03:18:53.237Z,14.20
2022-09-09T03:21:19.898Z,14.30
2022-09-09T03:23:46.683Z,14.40
2022-09-09T03:26:15.118Z,14.40
2022-09-09T03:28:43.198Z,14.40
2022-09-09T03:31:11.363Z,14.40
2022-09-09T03:33:39.144Z,14.40
2022-09-09T03:36:06.797Z,14.40
2022-09-09T03:38:33.528Z,14.30
2022-09-09T03:41:02.270Z,14.20
2022-09-09T03:43:29.532Z,14.20
2022-09-09T03:45:59.161Z,14.30
2022-09-09T03:48:27.968Z,14.20
2022-09-09T03:50:56.808Z,14.30
2022-09-09T03:53:25.751Z,14.30
2022-09-09T03:55:55.602Z,14.30
2022-09-09T03:58:25.191Z,14.30
2022-09-09T04:01:00.008Z,14.30
2022-09-09T04:03:28.484Z,14.40
2022-09-09T04:05:56.777Z,14.30
2022-09-09T04:08:25.458Z,14.40
2022-09-09T04:10:52.780Z,14.40
2022-09-09T04:13:20.687Z,14.50
2022-09-09T04:15:58.474Z,14.40
2022-09-09T04:18:26.884Z,14.50
2022-09-09T04:20:54.759Z,14.40
2022-09-09T04:23:21.773Z,14.40
2022-09-09T04:25:49.821Z,14.40
2022-09-09T04:28:17.791Z,14.40
2022-09-09T04:30:44.952Z,14.40
2022-09-09T04:33:12.917Z,14.40
2022-09-09T04:35:40.271Z,14.20
2022-09-09T04:38:10.428Z,14.30
2022-09-09T04:40:37.156Z,14.20
2022-09-09T04:43:10.448Z,14.10
2022-09-09T04:45:41.436Z,14.10
2022-09-09T04:48:08.429Z,14.10
2022-09-09T04:50:35.316Z,14.10
2022-09-09T04:53:03.053Z,14.20
2022-09-09T04:55:29.789Z,14.20
2022-09-09T04:57:56.516Z,14.20
2022-09-09T05:00:23.094Z,14.20
2022-09-09T05:02:49.744Z,14.30
2022-09-09T05:05:17.514Z,14.30
2022-09-09T05:07:44.381Z,14.30
2022-09-09T05:10:11.758Z,14.20
2022-09-09T05:12:38.387Z,14.30
2022-09-09T05:15:05.772Z,14.20
2022-09-09T05:17:32.495Z,14.30
2022-09-09T05:19:59.692Z,14.30
2022-09-09T05:22:26.366Z,14.30
2022-09-09T05:24:52.983Z,14.30
2022-09-09T05:27:20.475Z,14.30
2022-09-09T05:29:47.625Z,14.30
2022-09-09T05:32:16.052Z,14.40
2022-09-09T05:34:42.893Z,14.40
2022-09-09T05:37:09.519Z,14.50
2022-09-09T05:39:39.103Z,14.50
2022-09-09T05:42:05.956Z,14.50
2022-09-09T05:44:33.089Z,14.40
2022-09-09T05:46:59.775Z,14.40
2022-09-09T05:49:26.607Z,14.40
2022-09-09T05:51:53.845Z,14.40
2022-09-09T05:54:20.522Z,14.40
2022-09-09T05:56:51.452Z,14.40
2022-09-09T05:59:19.308Z,14.40
2022-09-09T06:01:46.509Z,14.40
2022-09-09T06:04:13.390Z,14.40
2022-09-09T06:06:40.940Z,14.50
2022-09-09T06:09:10.774Z,14.50
2022-09-09T06:11:39.633Z,14.60
2022-09-09T06:14:07.189Z,14.60
2022-09-09T06:16:34.386Z,14.60
2022-09-09T06:19:02.204Z,14.60
2022-09-09T06:21:35.238Z,14.70
2022-09-09T06:24:02.132Z,14.70
2022-09-09T06:26:37.417Z,14.80
2022-09-09T06:29:05.305Z,14.80
2022-09-09T06:31:35.296Z,14.90
2022-09-09T06:34:03.077Z,14.80
2022-09-09T06:36:32.199Z,14.90
2022-09-09T06:38:59.761Z,14.80
2022-09-09T06:41:28.739Z,14.90
2022-09-09T06:46:49.602Z,14.90
2022-09-09T06:49:16.625Z,14.90
2022-09-09T06:51:44.775Z,14.90
2022-09-09T06:54:13.363Z,14.90
2022-09-09T06:56:43.172Z,15.00
2022-09-09T06:59:10.933Z,14.90
2022-09-09T07:01:42.038Z,14.90
2022-09-09T07:04:10.213Z,14.90
2022-09-09T07:06:44.185Z,14.90
2022-09-09T07:09:13.359Z,14.90
2022-09-09T07:11:52.893Z,14.90
2022-09-09T07:14:20.677Z,14.90
2022-09-09T07:16:48.135Z,15.00
2022-09-09T07:22:07.508Z,15.10
2022-09-09T07:24:34.566Z,15.20
2022-09-09T07:27:01.502Z,15.30
2022-09-09T07:32:20.895Z,15.30
2022-09-09T07:34:48.148Z,15.40
2022-09-09T07:37:15.471Z,15.30
2022-09-09T07:39:43.314Z,15.20
2022-09-09T07:42:12.352Z,15.10
2022-09-09T07:44:40.728Z,15.20
2022-09-09T07:47:07.668Z,15.30
2022-09-09T07:49:35.350Z,15.40
2022-09-09T07:52:03.062Z,15.50
2022-09-09T07:54:30.248Z,15.50
2022-09-09T07:56:57.401Z,15.60
2022-09-09T07:59:25.368Z,15.70
2022-09-09T08:01:57.071Z,15.70
2022-09-09T08:04:26.359Z,15.70
2022-09-09T08:06:55.008Z,15.70
2022-09-09T08:09:25.964Z,15.70
2022-09-09T08:11:53.195Z,15.70
2022-09-09T08:14:20.349Z,15.70
2022-09-09T08:16:49.132Z,15.70
2022-09-09T08:19:16.488Z,15.80
2022-09-09T08:21:44.874Z,15.90
2022-09-09T08:24:13.149Z,15.90
2022-09-09T08:26:42.962Z,15.80
2022-09-09T08:29:11.738Z,16.00
2022-09-09T08:31:41.451Z,16.00
2022-09-09T08:34:09.936Z,16.10
2022-09-09T08:50:14.032Z,16.00
2022-09-09T08:52:53.384Z,15.80
2022-09-09T08:55:29.935Z,15.70
2022-09-09T09:01:11.785Z,15.50
2022-09-09T09:03:54.580Z,15.30
2022-09-09T09:06:51.230Z,15.30
2022-09-09T09:09:33.629Z,15.20
2022-09-09T09:17:47.919Z,15.20
2022-09-09T09:20:20.377Z,15.30
2022-09-09T09:25:45.943Z,15.30
2022-09-09T09:28:24.942Z,15.40
2022-09-09T09:30:53.760Z,15.40
2022-09-09T09:33:28.498Z,15.40
2022-09-09T09:35:55.707Z,15.50
2022-09-09T09:44:05.694Z,15.40
2022-09-09T09:46:33.747Z,15.40
2022-09-09T09:49:03.985Z,15.40
2022-09-09T09:51:33.526Z,15.50
2022-09-09T09:54:19.689Z,15.60
2022-09-09T09:59:41.309Z,15.70
2022-09-09T10:02:27.674Z,15.70
2022-09-09T10:05:05.498Z,15.70
2022-09-09T10:07:33.708Z,15.60
2022-09-09T10:10:00.862Z,15.70
2022-09-09T10:12:34.147Z,15.70
2022-09-09T10:15:21.157Z,15.80
2022-09-09T10:18:30.292Z,16.50
2022-09-09T10:24:54.600Z,16.90
2022-09-09T10:27:58.995Z,16.90
2022-09-09T10:31:05.144Z,16.70
2022-09-09T10:33:35.565Z,16.80
2022-09-09T10:36:12.287Z,16.90
2022-09-09T10:38:44.527Z,17.50
2022-09-09T10:44:41.832Z,17.70
2022-09-09T10:47:27.918Z,17.70
2022-09-09T10:50:18.468Z,17.70
2022-09-09T10:52:56.449Z,17.50
2022-09-09T10:55:31.882Z,17.40
2022-09-09T10:58:01.717Z,18.00
2022-09-09T11:00:43.319Z,18.80
2022-09-09T11:03:23.444Z,19.40
2022-09-09T11:06:07.121Z,20.00
2022-09-09T11:08:40.395Z,19.90
2022-09-09T11:11:28.200Z,20.30
2022-09-09T11:14:27.142Z,20.50
2022-09-09T11:16:58.936Z,21.00
2022-09-09T11:19:35.248Z,21.40
2022-09-09T11:22:22.148Z,21.50
2022-09-09T11:24:52.251Z,20.10
2022-09-09T11:27:37.276Z,19.80
2022-09-09T11:30:03.861Z,19.70
2022-09-09T11:33:00.138Z,20.40
2022-09-09T11:35:48.131Z,21.00
2022-09-09T11:38:46.851Z,22.00
2022-09-09T11:41:19.349Z,22.90
2022-09-09T11:43:53.192Z,22.70
2022-09-09T11:46:37.346Z,21.90
2022-09-09T11:49:06.807Z,21.10
2022-09-09T11:51:34.848Z,20.30
2022-09-09T11:54:50.148Z,20.00
2022-09-09T11:57:25.884Z,19.60
2022-09-09T11:59:53.538Z,19.40
2022-09-09T12:02:32.255Z,19.30
2022-09-09T12:05:11.003Z,19.20
2022-09-09T12:07:43.795Z,19.30
2022-09-09T12:10:40.939Z,19.30
2022-09-09T12:13:24.359Z,19.20
2022-09-09T12:15:54.545Z,19.00
2022-09-09T12:18:26.294Z,18.90
2022-09-09T12:21:16.121Z,18.80
2022-09-09T12:23:58.889Z,18.80
2022-09-09T12:26:43.293Z,18.70
2022-09-09T12:29:12.990Z,18.60
2022-09-09T12:31:58.598Z,18.60
2022-09-09T12:34:43.771Z,18.60
2022-09-09T12:37:27.554Z,18.50
2022-09-09T12:40:00.373Z,18.50
2022-09-09T12:42:28.407Z,18.50
2022-09-09T12:45:00.800Z,18.60
2022-09-09T12:47:32.016Z,18.60
2022-09-09T12:49:58.833Z,18.70
2022-09-09T12:52:31.236Z,18.70
2022-09-09T12:55:00.945Z,18.60
2022-09-09T12:57:31.017Z,18.40
2022-09-09T13:00:07.899Z,18.50
2022-09-09T13:02:35.082Z,18.70
2022-09-09T13:05:37.589Z,18.90
2022-09-09T13:08:11.269Z,19.20
2022-09-09T13:10:55.430Z,19.40
2022-09-09T13:13:31.042Z,19.40
2022-09-09T13:16:00.138Z,19.30
2022-09-09T13:18:41.127Z,19.40
2022-09-09T13:21:07.804Z,19.30
2022-09-09T13:23:36.970Z,19.30
2022-09-09T13:26:08.683Z,19.30
2022-09-09T13:28:36.059Z,19.10
2022-09-09T13:31:04.500Z,19.10
2022-09-09T13:33:40.977Z,18.90
2022-09-09T13:36:13.256Z,18.70
2022-09-09T13:38:55.713Z,18.90
2022-09-09T13:41:46.751Z,19.00
2022-09-09T13:44:26.566Z,18.90
2022-09-09T13:47:10.554Z,19.00
2022-09-09T13:49:37.732Z,19.10
2022-09-09T13:52:12.942Z,19.10
2022-09-09T13:54:40.190Z,19.10
2022-09-09T13:57:15.922Z,19.30
2022-09-09T14:00:03.618Z,19.30
2022-09-09T14:02:29.296Z,19.40
2022-09-09T14:04:56.433Z,19.40
2022-09-09T14:07:23.087Z,19.40
2022-09-09T14:09:51.076Z,19.20
2022-09-09T14:12:17.799Z,19.20
2022-09-09T14:14:44.864Z,19.10
2022-09-09T14:17:11.717Z,19.00
2022-09-09T14:19:38.474Z,18.90
2022-09-09T14:22:05.080Z,18.90
2022-09-09T14:24:31.935Z,19.00
2022-09-09T14:26:58.539Z,19.10
2022-09-09T14:29:27.631Z,19.20
2022-09-09T14:31:54.259Z,19.20
2022-09-09T14:34:21.012Z,19.00
2022-09-09T14:36:48.307Z,18.80
2022-09-09T14:39:14.947Z,18.80
2022-09-09T14:41:41.584Z,18.80
2022-09-09T14:44:09.159Z,18.60
2022-09-09T14:46:35.849Z,18.50
2022-09-09T14:49:02.730Z,18.50
2022-09-09T14:51:29.381Z,18.20
2022-09-09T14:53:59.150Z,18.00
2022-09-09T14:56:28.187Z,18.00
2022-09-09T14:58:58.687Z,18.00
2022-09-09T15:01:28.324Z,18.00
2022-09-09T15:04:03.466Z,18.00
2022-09-09T15:06:34.123Z,18.10
2022-09-09T15:09:01.464Z,18.00
2022-09-09T15:11:31.561Z,18.00
2022-09-09T15:13:59.182Z,18.20
2022-09-09T15:16:28.735Z,18.20
2022-09-09T15:18:58.373Z,18.20
2022-09-09T15:21:26.180Z,18.30
2022-09-09T15:23:53.368Z,18.40
2022-09-09T15:26:21.626Z,18.40
2022-09-09T15:28:50.600Z,18.50
2022-09-09T15:31:25.964Z,18.40
2022-09-09T15:34:01.465Z,18.30
2022-09-09T15:36:37.078Z,18.30
2022-09-09T15:39:06.383Z,18.20
2022-09-09T15:41:33.437Z,18.20
2022-09-09T15:44:01.539Z,18.20
2022-09-09T15:46:39.980Z,18.10
2022-09-09T15:49:15.254Z,18.10
2022-09-09T15:51:44.847Z,17.90
2022-09-09T15:54:14.767Z,17.80
2022-09-09T15:56:41.695Z,17.80
2022-09-09T15:59:08.325Z,17.70
2022-09-09T16:01:36.724Z,17.70
2022-09-09T16:04:03.630Z,17.70
2022-09-09T16:06:31.024Z,17.60
2022-09-09T16:08:59.237Z,17.60
2022-09-09T16:11:35.986Z,17.60
2022-09-09T16:14:03.059Z,17.70
2022-09-09T16:16:30.964Z,17.70
2022-09-09T16:19:05.002Z,17.70
2022-09-09T16:21:36.855Z,17.70
2022-09-09T16:24:04.888Z,17.70
2022-09-09T16:26:34.435Z,17.70
2022-09-09T16:29:02.370Z,17.70
2022-09-09T16:31:30.406Z,17.70
2022-09-09T16:33:57.400Z,17.70
2022-09-09T16:36:26.198Z,17.70
2022-09-09T16:38:58.460Z,17.70
2022-09-09T16:41:26.784Z,17.70
2022-09-09T16:43:59.135Z,17.60
2022-09-09T16:46:28.576Z,17.60
2022-09-09T16:48:59.291Z,17.60
2022-09-09T16:51:34.208Z,17.60
2022-09-09T16:54:03.021Z,17.50
2022-09-09T16:56:33.965Z,17.50
2022-09-09T16:59:02.969Z,17.50
2022-09-09T17:01:32.629Z,17.50
2022-09-09T17:04:01.840Z,17.50
2022-09-09T17:06:30.425Z,17.50
2022-09-09T17:09:05.675Z,17.60
2022-09-09T17:11:32.518Z,17.60
2022-09-09T17:14:01.226Z,17.50
2022-09-09T17:16:30.827Z,17.50
2022-09-09T17:18:58.122Z,17.50
2022-09-09T17:21:27.251Z,17.50
2022-09-09T17:23:55.039Z,17.40
2022-09-09T17:26:23.994Z,17.40
2022-09-09T17:28:50.649Z,17.40
2022-09-09T17:31:18.975Z,17.30
2022-09-09T17:33:49.568Z,17.30
2022-09-09T17:36:17.631Z,17.20
2022-09-09T17:38:45.721Z,17.20
2022-09-09T17:41:16.062Z,17.00
2022-09-09T17:46:39.390Z,17.00
2022-09-09T17:49:09.974Z,17.00
2022-09-09T17:51:37.829Z,17.00
2022-09-09T17:54:08.659Z,16.90
2022-09-09T17:56:36.328Z,16.90
2022-09-09T17:59:06.234Z,16.80
2022-09-09T18:04:26.341Z,16.70
2022-09-09T18:06:54.306Z,16.60
2022-09-09T18:09:24.531Z,16.60
2022-09-09T18:14:45.861Z,16.50
2022-09-09T18:17:13.012Z,16.40
2022-09-09T18:19:40.058Z,16.40
2022-09-09T18:22:07.618Z,16.40
2022-09-09T18:24:36.711Z,16.30
2022-09-09T18:27:04.176Z,16.30
2022-09-09T18:29:31.240Z,16.20
2022-09-09T18:31:58.472Z,16.20
2022-09-09T18:34:28.704Z,16.20
2022-09-09T18:36:56.761Z,16.20
2022-09-09T18:39:29.443Z,16.20
2022-09-09T18:44:53.551Z,16.10
2022-09-09T18:47:21.725Z,15.80
2022-09-09T18:49:51.029Z,15.70
2022-09-09T18:52:18.063Z,15.60
2022-09-09T18:54:46.349Z,15.50
2022-09-09T18:57:13.386Z,15.50
2022-09-09T18:59:40.640Z,15.40
2022-09-09T19:02:07.832Z,15.40
2022-09-09T19:04:35.240Z,15.30
2022-09-09T19:07:02.310Z,15.30
2022-09-09T19:09:32.512Z,15.20
2022-09-09T19:12:00.702Z,15.20
2022-09-09T19:14:28.361Z,15.20
2022-09-09T19:16:56.432Z,15.20
2022-09-09T19:19:26.744Z,15.20
2022-09-09T19:21:58.404Z,15.10
2022-09-09T19:24:30.672Z,15.20
2022-09-09T19:27:02.015Z,15.10
2022-09-09T19:29:32.598Z,15.20
2022-09-09T19:32:36.803Z,15.10
2022-09-09T19:37:42.463Z,15.10
2022-09-09T19:40:11.455Z,15.00
2022-09-09T19:42:38.467Z,14.90
2022-09-09T19:45:07.015Z,14.80
2022-09-09T19:50:25.930Z,14.70
2022-09-09T19:52:53.090Z,14.70
2022-09-09T19:55:20.128Z,14.60
2022-09-09T19:57:47.181Z,14.50
2022-09-09T20:00:14.320Z,14.50
2022-09-09T20:02:58.084Z,14.50
2022-09-09T20:05:32.374Z,14.50
2022-09-09T20:10:52.279Z,14.50
2022-09-09T20:13:19.429Z,14.50
2022-09-09T20:15:46.932Z,14.50
2022-09-09T20:18:14.337Z,14.50
2022-09-09T20:20:43.019Z,14.50
2022-09-09T20:23:15.113Z,14.50
2022-09-09T20:25:42.141Z,14.50
2022-09-09T20:28:09.389Z,14.50
2022-09-09T20:30:38.391Z,14.50
2022-09-09T20:33:06.067Z,14.40
2022-09-09T20:35:33.498Z,14.50
2022-09-09T20:38:00.975Z,14.50
2022-09-09T20:40:31.552Z,14.40
2022-09-09T20:43:00.489Z,14.40
2022-09-09T20:45:27.626Z,14.40
2022-09-09T20:47:57.438Z,14.30
2022-09-09T20:50:24.379Z,14.20
2022-09-09T20:52:52.571Z,14.20
2022-09-09T20:58:10.714Z,14.10
2022-09-09T21:00:37.861Z,14.10
2022-09-09T21:03:04.913Z,14.10
2022-09-09T21:05:32.370Z,14.10
2022-09-09T21:07:59.422Z,14.10
2022-09-09T21:10:26.768Z,14.10
2022-09-09T21:12:54.638Z,14.10
2022-09-09T21:15:21.584Z,14.10
2022-09-09T21:17:48.836Z,14.10
2022-09-09T21:20:16.091Z,14.10
2022-09-09T21:22:43.336Z,14.10
2022-09-09T21:25:10.389Z,14.10
2022-09-09T21:27:37.852Z,14.10
2022-09-09T21:30:05.503Z,14.10
2022-09-09T21:32:33.092Z,14.20
2022-09-09T21:35:00.312Z,14.20
2022-09-09T21:37:27.258Z,14.20
2022-09-09T21:39:54.877Z,14.20
2022-09-09T21:42:21.963Z,14.20
2022-09-09T21:44:49.012Z,14.20
2022-09-09T21:47:16.268Z,14.20
2022-09-09T21:49:43.518Z,14.20
2022-09-09T21:52:10.568Z,14.10
2022-09-09T21:54:39.767Z,14.10
2022-09-09T21:57:06.722Z,14.10
2022-09-09T21:59:33.981Z,14.10
2022-09-09T22:02:04.467Z,14.20
2022-09-09T22:04:31.333Z,14.20
2022-09-09T22:06:58.591Z,14.20
2022-09-09T22:09:25.629Z,14.30
2022-09-09T22:11:52.899Z,14.30
2022-09-09T22:14:20.032Z,14.30
2022-09-09T22:16:47.085Z,14.30
2022-09-09T22:19:14.161Z,14.30
2022-09-09T22:21:41.693Z,14.30
2022-09-09T22:24:08.936Z,14.30
2022-09-09T22:26:37.625Z,14.30
2022-09-09T22:29:06.211Z,14.30
2022-09-09T22:31:34.338Z,14.40
2022-09-09T22:34:01.634Z,14.40
2022-09-09T22:36:28.777Z,14.30
2022-09-09T22:38:56.958Z,14.30
2022-09-09T22:41:25.332Z,14.30
2022-09-09T22:43:52.590Z,14.30
2022-09-09T22:46:20.208Z,14.30
2022-09-09T22:48:47.600Z,14.20
2022-09-09T22:51:16.180Z,14.20
2022-09-09T22:53:45.174Z,14.20
2022-09-09T22:56:17.965Z,14.20
2022-09-09T22:58:46.440Z,14.20
2022-09-09T23:01:19.511Z,14.20
2022-09-09T23:03:47.752Z,14.20
2022-09-09T23:06:23.353Z,14.20
2022-09-09T23:08:57.670Z,14.20
2022-09-09T23:11:32.705Z,14.20
2022-09-09T23:14:06.922Z,14.30
2022-09-09T23:16:39.901Z,14.30
2022-09-09T23:22:03.698Z,14.20
2022-09-09T23:24:30.753Z,14.20
2022-09-09T23:26:57.709Z,14.20
2022-09-09T23:29:24.736Z,14.20
2022-09-09T23:31:51.486Z,14.20
2022-09-09T23:34:18.295Z,14.20
2022-09-09T23:36:45.017Z,14.20
2022-09-09T23:39:13.230Z,14.10
2022-09-09T23:41:40.261Z,14.10
2022-09-09T23:44:07.730Z,14.10
2022-09-09T23:46:35.331Z,14.10
2022-09-09T23:49:03.744Z,14.10
2022-09-09T23:51:31.451Z,14.10
2022-09-09T23:54:01.967Z,14.10
2022-09-09T23:56:32.318Z,14.10
2022-09-09T23:58:59.462Z,14.20
